Aeroporto :
LOGIN :

Iscrizione | Disclaimer

   EN    FR    IT 

 










Sommario :    VFR   VFR Marginale   IFR   IFR Intensivo   IFR Molto Intensivo
Visibilità : 
Base nubi : 
>= 8 km
>= 3000ft
5 / 8 km
1000 / 3000 ft
1500m / 5 km
500 / 1000 ft
800 / 1500m
200 / 500 ft
< 800m
< 200 ft
Simboli :   Temporali  Nebbia  Neve Forte  Precipitazioni Forti  Vento > 20 kt
SIGMETs :   Varie  Temporali  Ghiacco  Turbolenza  Onda orograficha  Ceneri Vulcaniche






- Altitudine del aeroporto : 646 ft
- Codice IATA : VNO


EYVI - Vilnius int.

ULTIMO METAR :
  • 261420Z 21010KT 0800 R19/1700N FZFG VV002 M01/M01 Q1014 R19/2///95 TEMPO 0600 FZFG

METARs OBSOLETI :
  • 261350Z 22010KT 1500 BR OVC002 M00/M01 Q1015 R19/2///95 TEMPO 0800 FZFG
  • 261320Z 21009KT 1800 BR OVC003 M00/M01 Q1015 R19/2///95 TEMPO 1500 BR OVC002
  • 261250Z 22009KT 3400 BR OVC003 M00/M01 Q1015 R19/2///95 NOSIG
  • 261220Z 23009KT 3600 BR OVC004 M00/M01 Q1015 R19/2///95 NOSIG
  • 261150Z 21009KT 3900 BR OVC004 M00/M01 Q1015 R19/2///95 NOSIG

TAF TAF EYVI
Valido dal 26 a 12 ore il 27 a 12 ore UTC


261106Z 2612/2712 23010KT 3000 BR OVC005
TEMPO 2612/2621 1500 OVC002
TEMPO 2621/2706 1000 RASN OVC002
BECMG 2706/2707 30014KT 5000 BKN010
TEMPO 2707/2709 1500 RA OVC003
TEMPO 2709/2712 BKN015



MetMap, La meteo Aeronautica in un colpo d'occhio ! - Copyright ORBIFLY Dicembre 2007 - Disclaimer

ORBIFLY MET'MAP TEAM :

Programmazione e sviluppo : Alexandra Zaïnal
Concezione : Baudouin d'Aumeries
Aiuto per la programmazione : Marc-Olivier Méhu
Supporto tecnico e logistico : Manuel Goepfert
Aiuto per la traduzione : Arnaldo La Scala

Contatto : metmap@orbifly.com




FONTI E CREDITI :

   NOAA